Time;durP1;ratioP1;P1;durP2;ratioP2;P2;SDS_P1;SDS_P2;PMS_P1;PMS_P2;Temp;Humidity;BMP_temperature;BMP_pressure;BME280_temperature;BME280_humidity;BME280_pressure;Samples;Min_cycle;Max_cycle;Signal;HPM_P1;HPM_P2
2021/09/21 00:02:02;;;;;;;3.15;1.98;;;28.30;99.90;;;;;;4196361;28;20127;-69
2021/09/21 00:04:07;;;;;;;4.70;2.30;;;28.30;99.90;;;;;;4194302;28;20162;-70
2021/09/21 00:06:12;;;;;;;4.43;2.95;;;28.30;99.90;;;;;;4194649;28;20052;-69
2021/09/21 00:08:17;;;;;;;5.60;3.00;;;28.30;99.90;;;;;;4194736;28;20048;-70
2021/09/21 00:10:21;;;;;;;4.22;2.10;;;28.30;99.90;;;;;;4178408;28;20063;-70
2021/09/21 00:12:25;;;;;;;6.60;2.90;;;28.30;99.90;;;;;;4192126;28;20047;-70
2021/09/21 00:14:30;;;;;;;4.05;2.22;;;28.40;99.90;;;;;;4194371;28;20037;-69
2021/09/21 00:16:34;;;;;;;4.75;2.20;;;28.40;99.90;;;;;;4194906;28;20400;-70
2021/09/21 00:18:39;;;;;;;7.50;2.55;;;28.40;99.90;;;;;;4194924;28;20076;-71
2021/09/21 00:20:43;;;;;;;3.78;2.30;;;28.40;99.90;;;;;;4196253;28;20044;-70
2021/09/21 00:22:47;;;;;;;3.08;2.05;;;28.50;99.90;;;;;;4195294;28;20094;-70
2021/09/21 00:24:52;;;;;;;3.63;1.90;;;28.50;99.90;;;;;;4178325;28;20821;-70
2021/09/21 00:26:56;;;;;;;5.93;4.38;;;28.50;99.90;;;;;;4195732;28;20398;-70
2021/09/21 00:29:01;;;;;;;6.85;2.90;;;28.50;99.90;;;;;;4196175;28;20102;-70
2021/09/21 00:31:10;;;;;;;3.17;2.10;;;28.60;99.90;;;;;;4195398;28;20064;-70
2021/09/21 00:33:19;;;;;;;5.65;2.17;;;28.60;99.90;;;;;;4195899;28;20045;-70
2021/09/21 00:35:24;;;;;;;2.65;2.00;;;28.60;99.90;;;;;;4194684;28;20106;-69
2021/09/21 00:37:29;;;;;;;3.05;1.85;;;28.60;99.90;;;;;;4192604;28;20570;-70
2021/09/21 00:39:33;;;;;;;3.83;1.70;;;28.60;99.90;;;;;;4193694;28;20403;-69
2021/09/21 00:41:39;;;;;;;3.03;1.92;;;28.60;99.90;;;;;;4198529;28;20119;-69
2021/09/21 00:43:46;;;;;;;2.58;1.77;;;28.60;99.90;;;;;;4198210;28;20525;-70
2021/09/21 00:45:52;;;;;;;1.98;1.75;;;28.60;99.90;;;;;;4195965;28;20124;-71
2021/09/21 00:47:56;;;;;;;2.47;1.60;;;28.60;99.90;;;;;;4179336;28;20045;-69
2021/09/21 00:50:01;;;;;;;3.95;1.80;;;28.60;99.90;;;;;;4195501;28;20094;-70
2021/09/21 00:52:05;;;;;;;3.42;1.80;;;28.60;99.90;;;;;;4193907;28;20102;-69
2021/09/21 00:54:10;;;;;;;3.65;1.90;;;28.70;99.90;;;;;;4192420;28;20036;-70
2021/09/21 00:56:15;;;;;;;4.35;1.58;;;28.70;99.90;;;;;;4179413;28;20133;-70
2021/09/21 00:58:19;;;;;;;3.28;1.70;;;28.70;99.90;;;;;;4195756;28;20499;-70
2021/09/21 01:00:24;;;;;;;2.47;1.67;;;28.70;99.90;;;;;;4195911;28;20056;-70
2021/09/21 01:02:29;;;;;;;3.40;1.90;;;28.70;99.90;;;;;;4195562;28;20156;-70
2021/09/21 01:04:35;;;;;;;5.05;2.30;;;28.70;99.90;;;;;;4195757;28;20053;-69
2021/09/21 01:06:40;;;;;;;3.05;1.98;;;28.80;99.90;;;;;;4179302;28;20527;-70
2021/09/21 01:08:44;;;;;;;2.63;1.63;;;28.80;99.90;;;;;;4194288;28;20052;-68
2021/09/21 01:10:49;;;;;;;4.03;2.15;;;28.80;99.90;;;;;;4179337;28;20543;-69
2021/09/21 01:12:53;;;;;;;3.58;1.83;;;28.80;99.90;;;;;;4179273;28;20032;-70
2021/09/21 01:14:59;;;;;;;4.68;2.05;;;28.90;99.90;;;;;;4194959;28;20043;-71
2021/09/21 01:17:04;;;;;;;2.90;2.00;;;28.90;99.90;;;;;;4186692;28;20048;-69
2021/09/21 01:19:13;;;;;;;2.30;1.63;;;29.00;99.90;;;;;;4196374;28;20086;-69
2021/09/21 01:21:23;;;;;;;5.38;2.05;;;28.90;99.90;;;;;;4177025;28;20061;-70
2021/09/21 01:23:28;;;;;;;3.90;1.70;;;28.90;99.90;;;;;;4194964;28;20052;-70
2021/09/21 01:25:33;;;;;;;7.40;2.08;;;29.00;99.90;;;;;;4195498;28;20047;-69
2021/09/21 01:27:38;;;;;;;1.90;1.67;;;29.00;99.90;;;;;;4195438;28;20163;-70
2021/09/21 01:29:42;;;;;;;2.35;1.75;;;29.00;99.90;;;;;;4147210;28;20037;-70
2021/09/21 01:31:47;;;;;;;3.75;2.10;;;29.00;99.90;;;;;;4147999;28;20520;-69
2021/09/21 01:33:52;;;;;;;2.65;1.92;;;29.00;99.90;;;;;;4196010;28;20110;-67
2021/09/21 01:35:57;;;;;;;3.17;1.63;;;29.00;99.90;;;;;;4176984;28;20080;-69
2021/09/21 01:38:01;;;;;;;3.08;1.77;;;29.00;99.90;;;;;;4194603;28;20309;-69
2021/09/21 01:40:07;;;;;;;4.38;1.95;;;29.00;99.90;;;;;;4196163;28;20045;-69
2021/09/21 01:42:12;;;;;;;2.88;1.90;;;29.10;99.90;;;;;;4194212;28;20083;-69
2021/09/21 01:44:17;;;;;;;6.22;2.25;;;29.10;99.90;;;;;;4196667;28;20419;-68
2021/09/21 01:46:23;;;;;;;2.58;1.73;;;29.10;99.90;;;;;;4195672;28;20046;-69
2021/09/21 01:48:28;;;;;;;2.42;1.80;;;29.10;99.90;;;;;;4196716;28;20087;-69
2021/09/21 01:53:02;;;;;;;3.50;1.60;;;29.20;99.90;;;;;;4180185;28;20131;-70
2021/09/21 01:55:14;;;;;;;3.97;1.98;;;29.20;99.90;;;;;;4185098;28;20435;-70
2021/09/21 01:59:37;;;;;;;4.25;1.70;;;29.30;99.90;;;;;;4195642;28;20059;-70
2021/09/21 02:01:42;;;;;;;3.95;1.65;;;29.20;99.90;;;;;;4196618;28;20052;-71
2021/09/21 02:03:47;;;;;;;2.08;1.75;;;29.30;99.90;;;;;;4195040;28;20593;-71
2021/09/21 02:05:53;;;;;;;2.03;1.60;;;29.40;99.90;;;;;;4195265;28;20060;-70
2021/09/21 02:07:57;;;;;;;3.30;1.73;;;29.50;99.90;;;;;;4196401;28;20425;-70
2021/09/21 02:10:02;;;;;;;2.33;1.85;;;29.70;99.90;;;;;;4194239;28;20140;-70
2021/09/21 02:12:08;;;;;;;2.72;1.60;;;29.70;99.90;;;;;;4196745;28;20051;-71
2021/09/21 02:14:14;;;;;;;2.50;1.55;;;29.70;99.90;;;;;;4195087;28;20092;-71
2021/09/21 02:16:19;;;;;;;1.95;1.52;;;29.80;99.90;;;;;;4195284;28;20119;-71
2021/09/21 02:18:23;;;;;;;4.05;1.70;;;29.80;99.90;;;;;;4196338;28;20040;-70
2021/09/21 02:20:28;;;;;;;2.80;1.65;;;29.80;99.90;;;;;;4196280;28;20052;-70
2021/09/21 02:22:32;;;;;;;4.88;1.60;;;29.80;99.90;;;;;;4196045;28;20052;-71
2021/09/21 02:24:37;;;;;;;1.75;1.48;;;29.80;99.90;;;;;;4193594;28;20049;-70
2021/09/21 02:26:41;;;;;;;2.67;1.60;;;29.70;99.90;;;;;;4187487;28;20052;-71
2021/09/21 02:28:46;;;;;;;5.03;1.73;;;29.60;99.90;;;;;;4196639;28;20056;-70
2021/09/21 02:30:50;;;;;;;2.63;1.58;;;29.60;99.90;;;;;;4195942;28;20403;-71
2021/09/21 02:32:57;;;;;;;2.65;1.40;;;29.60;99.90;;;;;;4196480;28;20040;-71
2021/09/21 02:35:01;;;;;;;2.08;1.65;;;29.70;99.90;;;;;;4119486;28;1874952;-70
2021/09/21 02:37:06;;;;;;;2.88;1.63;;;29.90;99.90;;;;;;4184342;28;20116;-70
2021/09/21 02:39:11;;;;;;;2.03;1.50;;;30.00;99.90;;;;;;4179489;28;20044;-70
2021/09/21 02:41:15;;;;;;;2.88;1.52;;;29.90;99.90;;;;;;4195922;28;20049;-71
2021/09/21 02:43:20;;;;;;;1.98;1.75;;;30.00;99.90;;;;;;4196848;28;20045;-70
2021/09/21 02:45:24;;;;;;;2.03;1.50;;;30.00;99.90;;;;;;4195335;28;20107;-70
2021/09/21 02:47:29;;;;;;;5.13;1.52;;;30.00;99.90;;;;;;4196062;28;20048;-70
2021/09/21 02:49:33;;;;;;;2.45;1.50;;;30.10;99.90;;;;;;4195571;28;20040;-70
2021/09/21 02:51:38;;;;;;;2.40;1.50;;;30.20;99.90;;;;;;4195259;28;20048;-70
2021/09/21 02:53:42;;;;;;;2.40;1.35;;;30.10;99.90;;;;;;4195598;28;20071;-71
2021/09/21 02:55:47;;;;;;;2.20;1.40;;;30.20;99.90;;;;;;4180496;28;20064;-70
2021/09/21 02:57:51;;;;;;;4.53;2.15;;;30.10;99.90;;;;;;4179410;28;20049;-70
2021/09/21 02:59:56;;;;;;;5.57;1.77;;;30.20;99.90;;;;;;4146789;28;20065;-70
2021/09/21 03:02:02;;;;;;;4.05;1.80;;;30.30;99.90;;;;;;4187334;28;20381;-70
2021/09/21 03:04:14;;;;;;;3.50;2.20;;;30.50;99.90;;;;;;4191677;28;20514;-71
2021/09/21 03:06:42;;;;;;;2.73;1.50;;;30.40;99.90;;;;;;4196645;28;20071;-70
2021/09/21 03:08:43;;;;;;;5.50;1.95;;;30.50;99.90;;;;;;4182287;28;20095;-70
2021/09/21 03:13:26;;;;;;;2.15;1.55;;;30.60;99.90;;;;;;4196781;28;20045;-71
2021/09/21 03:17:54;;;;;;;2.97;1.35;;;30.90;99.90;;;;;;4182699;28;20070;-71
2021/09/21 03:20:01;;;;;;;2.75;1.60;;;31.00;99.90;;;;;;4193157;28;20055;-70
2021/09/21 03:22:05;;;;;;;2.35;1.30;;;31.10;99.90;;;;;;4188381;28;20115;-70
2021/09/21 03:24:09;;;;;;;2.60;1.38;;;31.00;99.90;;;;;;4192442;28;20071;-71
2021/09/21 03:26:14;;;;;;;1.88;1.25;;;30.90;99.90;;;;;;4176578;28;20132;-69
2021/09/21 03:28:19;;;;;;;2.33;1.50;;;30.90;99.90;;;;;;4193015;28;20044;-70
2021/09/21 03:30:23;;;;;;;2.05;1.40;;;30.90;99.90;;;;;;4187838;28;20542;-72
2021/09/21 03:32:28;;;;;;;2.00;1.38;;;30.90;99.90;;;;;;4191431;28;20079;-69
2021/09/21 03:34:34;;;;;;;1.92;1.35;;;31.00;99.90;;;;;;4189866;28;20558;-70
2021/09/21 03:36:39;;;;;;;17.75;2.95;;;31.00;99.90;;;;;;4193372;28;20526;-68
2021/09/21 03:38:43;;;;;;;19.55;2.40;;;31.10;99.90;;;;;;4176031;28;20477;-71
2021/09/21 03:40:48;;;;;;;28.63;3.40;;;31.10;99.90;;;;;;4192292;28;20399;-74
2021/09/21 03:42:54;;;;;;;19.30;2.40;;;31.00;99.90;;;;;;4193061;28;20476;-72
2021/09/21 03:44:58;;;;;;;8.93;1.92;;;31.20;99.90;;;;;;4193622;28;20055;-68
2021/09/21 03:47:03;;;;;;;7.20;1.50;;;31.20;99.90;;;;;;4195656;28;20043;-72
2021/09/21 03:49:08;;;;;;;2.65;1.67;;;31.20;99.90;;;;;;4194846;28;20047;-75
2021/09/21 03:51:12;;;;;;;3.60;2.10;;;31.30;99.90;;;;;;4195030;28;20066;-73
2021/09/21 03:53:17;;;;;;;4.15;1.80;;;31.30;99.90;;;;;;4182489;28;20534;-76
2021/09/21 03:55:22;;;;;;;2.15;1.50;;;31.20;99.90;;;;;;4201437;28;20371;-75
2021/09/21 03:57:26;;;;;;;1.58;1.33;;;31.20;99.90;;;;;;4196151;28;20044;-68
2021/09/21 03:59:31;;;;;;;1.33;1.20;;;31.30;99.90;;;;;;4195383;28;20521;-71
2021/09/21 04:01:35;;;;;;;2.47;1.30;;;31.20;99.90;;;;;;4192801;28;20528;-71
2021/09/21 04:03:40;;;;;;;5.03;1.33;;;31.20;99.90;;;;;;4189257;28;20071;-71
2021/09/21 04:05:45;;;;;;;1.48;1.10;;;31.20;99.90;;;;;;4192336;28;20090;-71
2021/09/21 04:07:50;;;;;;;2.88;1.20;;;31.20;99.90;;;;;;4193582;28;20039;-70
2021/09/21 04:09:55;;;;;;;2.70;1.45;;;31.40;99.90;;;;;;4192752;28;20103;-71
2021/09/21 04:12:00;;;;;;;1.90;1.20;;;31.60;99.90;;;;;;4183907;28;20040;-71
2021/09/21 04:14:04;;;;;;;2.33;1.25;;;31.70;99.90;;;;;;4196541;28;20556;-70
2021/09/21 04:16:09;;;;;;;3.30;1.10;;;31.70;99.90;;;;;;4177626;28;20036;-72
2021/09/21 04:18:13;;;;;;;1.30;1.00;;;31.70;99.90;;;;;;4191254;28;20037;-71
2021/09/21 04:20:18;;;;;;;1.27;1.00;;;31.60;99.90;;;;;;4193212;28;20067;-72
2021/09/21 04:22:22;;;;;;;2.08;1.33;;;31.60;99.90;;;;;;4194102;28;20067;-68
2021/09/21 04:24:27;;;;;;;3.03;1.33;;;31.70;99.90;;;;;;4193437;28;20045;-69
2021/09/21 04:26:31;;;;;;;1.38;1.15;;;31.60;99.90;;;;;;4178485;28;20497;-70
2021/09/21 04:28:36;;;;;;;2.05;1.20;;;31.60;99.90;;;;;;4195874;28;20541;-70
2021/09/21 04:30:42;;;;;;;3.38;1.40;;;31.60;99.90;;;;;;4195130;28;20507;-69
2021/09/21 04:32:49;;;;;;;1.65;1.10;;;31.80;99.90;;;;;;4192950;28;20046;-71
2021/09/21 04:34:54;;;;;;;1.80;1.10;;;31.70;99.90;;;;;;4194061;28;20065;-73
2021/09/21 04:36:59;;;;;;;1.30;1.00;;;31.50;99.90;;;;;;4177696;28;20087;-73
2021/09/21 04:39:04;;;;;;;1.42;0.93;;;31.40;99.90;;;;;;4178236;28;20156;-72
2021/09/21 04:41:08;;;;;;;1.90;1.08;;;31.30;99.90;;;;;;4190837;28;20048;-73
2021/09/21 04:43:13;;;;;;;1.23;1.02;;;31.40;99.90;;;;;;4194755;28;20051;-74
2021/09/21 04:45:17;;;;;;;1.50;1.15;;;31.40;99.90;;;;;;4196797;28;20040;-74
2021/09/21 04:47:22;;;;;;;1.65;1.30;;;31.50;99.90;;;;;;4196486;28;20063;-73
2021/09/21 04:49:27;;;;;;;3.83;1.17;;;31.50;99.90;;;;;;4191968;28;20049;-72
2021/09/21 04:51:32;;;;;;;2.15;1.33;;;31.40;99.90;;;;;;4193737;28;20048;-73
2021/09/21 04:53:36;;;;;;;1.27;1.10;;;31.50;99.90;;;;;;4176714;28;20041;-73
2021/09/21 04:55:41;;;;;;;2.42;1.40;;;31.50;99.90;;;;;;4193698;28;20036;-73
2021/09/21 04:57:45;;;;;;;2.70;1.23;;;31.70;99.90;;;;;;4193761;28;20537;-73
2021/09/21 04:59:49;;;;;;;1.90;1.10;;;31.70;99.90;;;;;;4192590;28;20110;-72
2021/09/21 05:01:54;;;;;;;2.65;1.10;;;31.70;99.90;;;;;;4192108;28;20049;-73
2021/09/21 05:03:59;;;;;;;3.78;1.30;;;31.60;99.90;;;;;;4193435;28;20041;-72
2021/09/21 05:06:04;;;;;;;1.98;1.10;;;31.60;99.90;;;;;;4192538;28;20068;-72
2021/09/21 05:08:08;;;;;;;2.50;1.25;;;31.60;99.90;;;;;;4192219;28;20072;-74
2021/09/21 05:10:12;;;;;;;2.42;1.00;;;31.70;99.90;;;;;;4176666;28;20072;-72
2021/09/21 05:12:17;;;;;;;2.25;1.20;;;31.70;99.90;;;;;;4191094;28;20391;-71
2021/09/21 05:14:22;;;;;;;2.78;1.20;;;31.70;99.90;;;;;;4192220;28;20033;-71
2021/09/21 05:16:26;;;;;;;1.52;1.10;;;31.70;99.90;;;;;;4193683;28;20067;-71
2021/09/21 05:18:32;;;;;;;4.07;1.10;;;31.70;99.90;;;;;;4192620;28;20041;-71
2021/09/21 05:20:36;;;;;;;2.25;0.82;;;31.90;99.90;;;;;;4160098;28;20053;-72
2021/09/21 05:22:41;;;;;;;3.25;1.00;;;32.00;99.90;;;;;;4190791;28;20534;-71
2021/09/21 05:24:46;;;;;;;2.05;0.70;;;32.10;99.90;;;;;;4194862;28;20348;-71
2021/09/21 05:26:51;;;;;;;1.40;0.82;;;32.30;99.90;;;;;;4179175;28;20044;-72
2021/09/21 05:28:56;;;;;;;1.38;0.90;;;32.30;99.90;;;;;;4180618;28;20083;-72
2021/09/21 05:31:00;;;;;;;1.20;0.80;;;32.30;99.90;;;;;;4207247;28;20044;-72
2021/09/21 05:33:05;;;;;;;2.05;0.80;;;32.20;99.90;;;;;;4195326;28;20040;-71
2021/09/21 05:35:10;;;;;;;1.50;0.82;;;32.20;99.90;;;;;;4195704;28;20341;-71
2021/09/21 05:37:18;;;;;;;1.02;0.75;;;32.30;99.90;;;;;;4193792;28;20490;-72
2021/09/21 05:39:27;;;;;;;;;;;32.30;99.90;;;;;;4195726;28;20431;-71
2021/09/21 05:41:31;;;;;;;1.95;0.63;;;32.50;99.90;;;;;;4197779;28;19943;-72
2021/09/21 05:43:36;;;;;;;1.33;0.73;;;32.60;99.90;;;;;;4193158;28;20048;-73
2021/09/21 05:45:41;;;;;;;1.45;0.73;;;32.70;99.90;;;;;;4198420;28;20051;-72
2021/09/21 05:47:46;;;;;;;1.85;0.50;;;32.70;99.90;;;;;;4196976;28;20052;-72
2021/09/21 05:49:51;;;;;;;1.00;0.68;;;32.70;99.90;;;;;;4197987;28;20505;-72
2021/09/21 05:51:56;;;;;;;3.10;0.70;;;32.70;99.90;;;;;;4195344;28;20589;-71
2021/09/21 05:54:00;;;;;;;1.77;0.63;;;32.60;99.90;;;;;;4196195;28;20040;-72
2021/09/21 05:56:05;;;;;;;1.98;0.80;;;32.60;99.90;;;;;;4198336;28;20118;-72
2021/09/21 05:58:10;;;;;;;1.15;0.80;;;32.50;99.90;;;;;;4197424;28;20045;-72
2021/09/21 06:00:16;;;;;;;0.90;0.80;;;32.50;99.90;;;;;;4198811;28;20067;-71
2021/09/21 06:02:23;;;;;;;0.60;0.60;;;32.60;99.90;;;;;;4197230;28;20127;-71
2021/09/21 06:04:28;;;;;;;1.10;0.90;;;32.50;99.90;;;;;;4197920;28;20045;-71
2021/09/21 06:06:32;;;;;;;1.40;0.90;;;32.60;99.90;;;;;;4196900;28;20052;-71
2021/09/21 06:08:37;;;;;;;1.13;0.68;;;32.70;99.90;;;;;;4197752;28;20039;-71
2021/09/21 06:10:41;;;;;;;0.93;0.80;;;32.80;99.90;;;;;;4180630;28;20037;-72
2021/09/21 06:12:46;;;;;;;1.30;0.90;;;32.70;99.90;;;;;;4193725;28;20101;-72
2021/09/21 06:14:50;;;;;;;1.20;0.90;;;32.60;99.90;;;;;;4182864;28;20036;-71
2021/09/21 06:16:55;;;;;;;0.77;0.65;;;32.50;99.90;;;;;;4197305;28;20064;-71
2021/09/21 06:18:59;;;;;;;1.15;0.90;;;32.60;99.90;;;;;;4180715;28;20534;-71
2021/09/21 06:21:04;;;;;;;0.70;0.70;;;32.60;99.90;;;;;;4197987;28;20051;-71
2021/09/21 06:23:08;;;;;;;1.02;0.90;;;32.70;99.90;;;;;;4196558;28;20048;-71
2021/09/21 06:25:14;;;;;;;1.95;0.90;;;32.70;99.90;;;;;;4196181;28;20571;-71
2021/09/21 06:27:19;;;;;;;1.85;0.95;;;32.60;99.90;;;;;;4164447;28;20462;-71
2021/09/21 06:29:23;;;;;;;1.27;0.90;;;32.60;99.90;;;;;;4198229;28;20555;-71
2021/09/21 06:31:28;;;;;;;0.95;0.80;;;32.50;99.90;;;;;;4197145;28;20499;-72
2021/09/21 06:33:33;;;;;;;1.05;0.85;;;32.60;99.90;;;;;;4195860;28;20051;-72
2021/09/21 06:35:37;;;;;;;1.35;0.80;;;32.70;99.90;;;;;;4195581;28;20140;-73
2021/09/21 06:37:43;;;;;;;1.63;0.80;;;32.80;99.90;;;;;;4195377;28;20072;-70
2021/09/21 06:39:49;;;;;;;0.88;0.80;;;32.80;99.90;;;;;;4197206;28;20043;-72
2021/09/21 06:41:53;;;;;;;1.75;0.70;;;32.90;99.90;;;;;;4197070;28;20091;-71
2021/09/21 06:43:58;;;;;;;1.98;0.65;;;32.90;99.90;;;;;;4197278;28;20129;-71
2021/09/21 06:46:02;;;;;;;1.33;0.60;;;32.90;99.90;;;;;;4198743;28;20411;-72
2021/09/21 06:48:11;;;;;;;0.73;0.60;;;32.90;99.90;;;;;;4197696;28;20048;-72
2021/09/21 06:50:16;;;;;;;0.60;0.50;;;33.00;99.90;;;;;;4197492;28;20550;-72
2021/09/21 06:52:20;;;;;;;0.40;0.40;;;33.10;99.90;;;;;;4178760;28;20444;-72
2021/09/21 06:54:25;;;;;;;1.30;0.52;;;33.10;99.90;;;;;;4196531;28;20616;-72
2021/09/21 06:56:29;;;;;;;1.02;0.40;;;33.10;99.90;;;;;;4180043;28;20040;-72
2021/09/21 06:58:35;;;;;;;0.55;0.40;;;33.10;99.90;;;;;;4196675;28;20427;-72
2021/09/21 07:00:41;;;;;;;2.17;0.60;;;33.00;99.90;;;;;;4197147;28;20032;-71
2021/09/21 07:02:48;;;;;;;0.57;0.50;;;32.90;99.90;;;;;;4178955;28;20091;-71
2021/09/21 07:04:53;;;;;;;0.85;0.40;;;32.90;99.90;;;;;;4196405;28;20515;-71
2021/09/21 07:06:58;;;;;;;1.40;0.50;;;33.00;99.90;;;;;;4196861;28;20062;-72
2021/09/21 07:09:02;;;;;;;0.60;0.50;;;33.10;99.90;;;;;;4197067;28;20044;-72
2021/09/21 07:11:07;;;;;;;0.60;0.50;;;33.20;99.90;;;;;;4197340;28;20563;-72
2021/09/21 07:13:12;;;;;;;1.88;0.52;;;33.20;99.40;;;;;;4194935;28;20033;-72
2021/09/21 07:15:21;;;;;;;0.38;0.38;;;33.20;99.90;;;;;;4196297;28;20049;-72
2021/09/21 07:17:26;;;;;;;1.13;0.65;;;33.30;99.90;;;;;;4197058;28;20072;-73
2021/09/21 07:19:30;;;;;;;0.43;0.40;;;33.30;99.90;;;;;;4196303;28;20502;-72
2021/09/21 07:21:35;;;;;;;1.17;0.50;;;33.40;99.90;;;;;;4197766;28;20056;-72
2021/09/21 07:23:39;;;;;;;0.77;0.60;;;33.30;99.80;;;;;;4195901;28;20487;-71
2021/09/21 07:25:44;;;;;;;0.88;0.40;;;33.30;99.90;;;;;;4197473;28;20092;-71
2021/09/21 07:27:50;;;;;;;1.00;0.52;;;33.20;99.90;;;;;;4196072;28;20055;-72
2021/09/21 07:29:55;;;;;;;0.82;0.60;;;33.10;99.90;;;;;;4196542;28;20067;-72
2021/09/21 07:32:00;;;;;;;0.60;0.60;;;33.10;99.90;;;;;;4196657;28;20044;-73
2021/09/21 07:34:05;;;;;;;0.73;0.63;;;33.00;99.70;;;;;;4177509;28;20061;-71
2021/09/21 07:36:10;;;;;;;1.95;0.65;;;32.90;99.60;;;;;;4195808;28;20075;-71
2021/09/21 07:38:15;;;;;;;0.68;0.68;;;32.80;99.90;;;;;;4194399;28;20059;-71
2021/09/21 07:40:20;;;;;;;1.85;0.47;;;32.70;99.80;;;;;;4195298;28;20075;-72
2021/09/21 07:42:25;;;;;;;0.50;0.50;;;32.70;99.60;;;;;;4179017;28;20583;-71
2021/09/21 07:44:30;;;;;;;0.98;0.55;;;32.80;99.50;;;;;;4180097;28;20334;-72
2021/09/21 07:46:34;;;;;;;0.80;0.60;;;32.80;99.50;;;;;;4179644;28;20083;-74
2021/09/21 07:48:39;;;;;;;0.50;0.50;;;32.80;99.70;;;;;;4183033;28;20395;-73
2021/09/21 07:50:44;;;;;;;1.33;0.52;;;32.80;99.60;;;;;;4197081;28;20482;-73
2021/09/21 07:52:48;;;;;;;0.85;0.60;;;32.80;99.70;;;;;;4193957;28;20045;-72
2021/09/21 07:54:53;;;;;;;0.90;0.40;;;32.80;99.90;;;;;;4162777;28;20053;-71
2021/09/21 07:56:58;;;;;;;1.00;0.57;;;32.80;99.90;;;;;;4179221;28;20555;-74
2021/09/21 07:59:04;;;;;;;1.20;0.70;;;32.80;99.90;;;;;;4173435;28;20056;-73
2021/09/21 08:01:09;;;;;;;3.88;0.70;;;32.80;99.90;;;;;;4197263;28;20053;-72
2021/09/21 08:03:14;;;;;;;1.30;0.57;;;32.60;99.90;;;;;;4195464;28;20083;-72
2021/09/21 08:05:20;;;;;;;2.33;0.73;;;32.60;99.90;;;;;;4179583;28;20057;-72
2021/09/21 08:07:28;;;;;;;2.55;0.90;;;32.60;99.90;;;;;;4196500;28;20044;-73
2021/09/21 08:09:34;;;;;;;1.80;0.90;;;32.60;99.90;;;;;;4179707;28;20313;-73
2021/09/21 08:11:38;;;;;;;1.85;1.00;;;32.60;99.90;;;;;;4181509;28;20052;-73
2021/09/21 08:13:43;;;;;;;1.23;0.90;;;32.60;99.90;;;;;;4195770;28;20036;-73
2021/09/21 08:15:50;;;;;;;1.23;0.70;;;32.60;99.90;;;;;;4195062;28;20048;-73
2021/09/21 08:17:54;;;;;;;1.00;0.70;;;32.60;99.90;;;;;;4192672;28;20165;-73
2021/09/21 08:19:59;;;;;;;1.02;0.88;;;32.60;99.90;;;;;;4183542;28;20090;-73
2021/09/21 08:22:04;;;;;;;2.03;0.80;;;32.60;99.90;;;;;;4195009;28;20051;-73
2021/09/21 08:24:08;;;;;;;1.23;0.70;;;32.50;99.90;;;;;;4194922;28;20078;-73
2021/09/21 08:26:13;;;;;;;0.65;0.65;;;32.50;99.90;;;;;;4195917;28;20053;-73
2021/09/21 08:28:17;;;;;;;1.27;0.65;;;32.50;99.90;;;;;;4195843;28;20044;-75
2021/09/21 08:30:22;;;;;;;0.85;0.73;;;32.60;99.90;;;;;;4195161;28;20052;-73
2021/09/21 08:32:27;;;;;;;4.10;0.90;;;32.60;99.90;;;;;;4174598;28;20257;-69
2021/09/21 08:34:31;;;;;;;0.73;0.50;;;32.60;99.90;;;;;;4192877;28;20040;-70
2021/09/21 08:36:36;;;;;;;1.17;0.70;;;32.60;99.90;;;;;;4193368;28;20086;-72
2021/09/21 08:38:41;;;;;;;3.05;0.70;;;32.60;99.90;;;;;;4192019;28;20162;-72
2021/09/21 08:40:46;;;;;;;0.80;0.70;;;32.50;99.90;;;;;;4195454;28;20407;-70
2021/09/21 08:42:51;;;;;;;1.70;0.80;;;32.50;99.90;;;;;;4193152;28;20040;-72
2021/09/21 08:44:55;;;;;;;1.45;0.73;;;32.40;99.90;;;;;;4194357;28;20128;-71
2021/09/21 08:47:00;;;;;;;2.58;0.90;;;32.30;99.90;;;;;;4192644;28;20502;-71
2021/09/21 08:49:05;;;;;;;3.50;0.93;;;32.20;99.90;;;;;;4175801;28;20080;-72
2021/09/21 08:51:10;;;;;;;6.03;0.95;;;32.10;99.90;;;;;;4189956;28;20072;-72
2021/09/21 08:53:15;;;;;;;2.00;1.00;;;32.10;99.90;;;;;;4190510;28;20055;-72
2021/09/21 08:55:19;;;;;;;5.72;1.60;;;32.10;99.90;;;;;;4192904;28;20044;-71
2021/09/21 08:57:25;;;;;;;2.97;1.52;;;32.10;99.90;;;;;;4191396;28;20064;-70
2021/09/21 08:59:32;;;;;;;4.25;1.25;;;32.00;99.90;;;;;;4174890;28;20112;-72
2021/09/21 09:01:40;;;;;;;1.88;1.08;;;32.00;99.90;;;;;;4196709;28;20045;-71
2021/09/21 09:03:56;;;;;;;3.08;1.75;;;32.00;99.90;;;;;;4196554;28;20048;-71
2021/09/21 09:06:05;;;;;;;7.53;4.30;;;32.00;99.90;;;;;;4206113;28;20157;-69
2021/09/21 09:08:12;;;;;;;5.75;4.22;;;31.90;99.90;;;;;;4193079;28;20582;-70
2021/09/21 09:10:17;;;;;;;3.85;2.75;;;31.90;99.90;;;;;;4195908;28;20087;-70
2021/09/21 09:12:28;;;;;;;4.18;2.10;;;31.70;99.90;;;;;;4192334;28;20172;-70
2021/09/21 09:14:38;;;;;;;4.13;1.40;;;31.70;99.90;;;;;;4192719;28;20036;-70
2021/09/21 09:16:44;;;;;;;2.53;1.10;;;31.70;99.90;;;;;;4194748;28;20077;-71
2021/09/21 09:18:58;;;;;;;1.52;0.90;;;31.70;99.90;;;;;;4191391;28;20040;-69
2021/09/21 09:21:03;;;;;;;1.73;0.88;;;31.70;99.90;;;;;;4195861;28;20055;-70
2021/09/21 09:23:10;;;;;;;2.08;0.60;;;31.70;99.90;;;;;;4193895;28;20033;-72
2021/09/21 09:25:17;;;;;;;6.90;1.20;;;31.70;99.90;;;;;;4195936;28;20131;-72
2021/09/21 09:27:34;;;;;;;4.53;1.17;;;31.50;99.90;;;;;;4192994;28;20090;-72
2021/09/21 09:29:52;;;;;;;2.10;0.88;;;31.50;99.90;;;;;;4165344;28;20045;-72
2021/09/21 09:32:00;;;;;;;1.15;0.80;;;31.30;99.90;;;;;;4160721;28;20052;-72
2021/09/21 09:34:05;;;;;;;1.85;0.50;;;31.30;99.90;;;;;;4188094;28;20163;-72
2021/09/21 09:36:10;;;;;;;1.17;0.80;;;31.40;99.90;;;;;;4188289;28;20388;-72
2021/09/21 09:38:17;;;;;;;1.52;0.80;;;31.30;99.90;;;;;;4189097;28;20056;-72
2021/09/21 09:40:22;;;;;;;3.70;1.08;;;31.20;99.90;;;;;;4187014;28;20139;-72
2021/09/21 09:42:26;;;;;;;3.58;1.17;;;31.20;99.90;;;;;;4188595;28;20313;-72
2021/09/21 09:44:32;;;;;;;3.20;2.00;;;31.30;99.90;;;;;;4186873;28;20135;-73
2021/09/21 09:46:59;;;;;;;2.75;1.85;;;31.30;99.90;;;;;;4172232;28;20052;-72
2021/09/21 09:49:04;;;;;;;3.25;1.42;;;31.30;99.90;;;;;;4188137;28;20115;-73
2021/09/21 09:51:08;;;;;;;4.47;1.15;;;31.20;99.90;;;;;;4187685;28;20426;-72
2021/09/21 09:53:13;;;;;;;1.45;1.30;;;31.20;99.90;;;;;;4190114;28;20043;-73
2021/09/21 09:55:18;;;;;;;2.20;1.50;;;31.20;99.90;;;;;;4183716;28;20057;-73
2021/09/21 09:57:23;;;;;;;2.67;1.67;;;31.10;99.90;;;;;;4185218;28;20071;-72
2021/09/21 09:59:28;;;;;;;4.13;1.70;;;31.00;99.90;;;;;;4184746;28;20059;-71
2021/09/21 10:01:33;;;;;;;2.03;1.40;;;31.00;99.90;;;;;;4184598;28;20438;-72
2021/09/21 10:03:40;;;;;;;3.45;1.80;;;31.00;99.90;;;;;;4151050;28;20610;-72
2021/09/21 10:05:45;;;;;;;3.70;2.67;;;31.00;99.90;;;;;;4149878;28;20049;-73
2021/09/21 10:07:49;;;;;;;4.78;2.45;;;31.00;99.90;;;;;;4166384;28;21104;-72
2021/09/21 10:09:54;;;;;;;3.13;1.80;;;31.00;99.90;;;;;;4150746;28;20136;-71
2021/09/21 10:11:59;;;;;;;3.72;1.35;;;30.90;99.90;;;;;;4163300;28;20068;-71
2021/09/21 10:14:04;;;;;;;3.50;1.30;;;30.90;99.90;;;;;;4152619;28;20049;-72
2021/09/21 10:16:09;;;;;;;3.13;1.33;;;30.80;99.90;;;;;;4153748;28;20041;-71
2021/09/21 10:18:18;;;;;;;6.00;1.42;;;30.80;99.90;;;;;;4170155;28;20049;-71
2021/09/21 10:20:35;;;;;;;2.35;1.30;;;30.80;99.90;;;;;;4137135;28;20061;-70
2021/09/21 10:22:40;;;;;;;2.92;1.42;;;30.80;99.90;;;;;;4153902;28;20045;-71
2021/09/21 10:24:50;;;;;;;5.68;1.70;;;30.80;99.90;;;;;;4176506;28;20052;-71
2021/09/21 10:27:01;;;;;;;1.92;1.50;;;30.80;99.90;;;;;;4169785;28;20045;-71
2021/09/21 10:29:06;;;;;;;3.72;1.83;;;30.70;99.90;;;;;;4160056;28;20057;-72
2021/09/21 10:31:18;;;;;;;3.75;1.70;;;30.70;99.90;;;;;;4151782;28;20058;-72
2021/09/21 10:33:23;;;;;;;2.95;1.63;;;30.70;99.90;;;;;;4162944;28;20037;-71
2021/09/21 10:35:30;;;;;;;2.63;1.20;;;30.70;99.90;;;;;;4176373;28;20550;-71
2021/09/21 10:37:34;;;;;;;3.05;1.55;;;30.70;99.90;;;;;;4170654;28;20045;-71
2021/09/21 10:39:39;;;;;;;2.65;1.30;;;30.70;99.90;;;;;;4198511;28;20131;-71
2021/09/21 10:41:56;;;;;;;4.65;1.50;;;30.70;99.90;;;;;;4197103;28;20048;-71
2021/09/21 10:44:05;;;;;;;2.85;1.00;;;30.70;99.90;;;;;;4195999;28;20037;-70
2021/09/21 10:46:17;;;;;;;8.30;0.90;;;30.70;99.90;;;;;;4199185;28;20036;-71
2021/09/21 10:48:22;;;;;;;6.47;1.37;;;30.70;99.90;;;;;;4199627;28;20049;-73
2021/09/21 10:50:26;;;;;;;9.98;1.65;;;30.70;99.90;;;;;;4190884;28;20060;-70
2021/09/21 10:52:31;;;;;;;7.90;1.23;;;30.70;99.90;;;;;;4192794;28;20545;-70
2021/09/21 10:54:56;;;;;;;5.13;1.20;;;30.60;99.90;;;;;;4191614;28;20070;-72
2021/09/21 10:57:12;;;;;;;2.42;1.17;;;30.60;99.90;;;;;;4193870;28;20055;-72
2021/09/21 10:59:19;;;;;;;3.55;1.60;;;30.50;99.90;;;;;;4186355;28;20049;-71
2021/09/21 11:01:23;;;;;;;6.22;2.70;;;30.40;99.90;;;;;;4192012;28;20041;-70
2021/09/21 11:03:29;;;;;;;3.13;1.70;;;30.30;99.90;;;;;;4203790;28;20093;-72
2021/09/21 11:05:34;;;;;;;4.10;2.03;;;30.20;99.90;;;;;;4196091;28;20048;-71